Time;durP1;ratioP1;P1;durP2;ratioP2;P2;SDS_P1;SDS_P2;PMS_P1;PMS_P2;Temp;Humidity;BMP_temperature;BMP_pressure;BME280_temperature;BME280_humidity;BME280_pressure;Samples;Min_cycle;Max_cycle;Signal;HPM_P1;HPM_P2
2021/10/23 00:01:31;;;;;;;0.00;0.00;;;;;;;8.06;100.00;101082.41;5070465;28;20500;-68
2021/10/23 00:03:57;;;;;;;0.10;0.10;;;;;;;8.07;100.00;101085.91;5053342;28;20067;-68
2021/10/23 00:06:22;;;;;;;0.10;0.10;;;;;;;8.12;100.00;101096.41;5065626;28;20056;-68
2021/10/23 00:08:48;;;;;;;0.30;0.30;;;;;;;8.13;100.00;101100.66;5061201;28;20085;-68
2021/10/23 00:11:14;;;;;;;0.10;0.10;;;;;;;8.07;100.00;101094.69;5060997;28;20258;-68
2021/10/23 00:13:39;;;;;;;0.10;0.10;;;;;;;8.07;100.00;101102.75;5067727;28;20037;-68
2021/10/23 00:16:05;;;;;;;0.10;0.10;;;;;;;8.01;100.00;101108.66;5049020;28;20029;-68
2021/10/23 00:18:30;;;;;;;0.20;0.20;;;;;;;8.02;100.00;101112.88;5068452;28;20029;-68
2021/10/23 00:20:55;;;;;;;0.10;0.10;;;;;;;8.00;100.00;101107.06;5074317;28;20109;-68
2021/10/23 00:23:21;;;;;;;0.10;0.10;;;;;;;8.00;100.00;101112.44;5062994;28;20442;-68
2021/10/23 00:25:46;;;;;;;0.10;0.10;;;;;;;7.97;100.00;101115.78;5039260;28;20035;-68
2021/10/23 00:28:12;;;;;;;0.13;0.13;;;;;;;7.94;100.00;101116.41;5072942;28;20029;-68
2021/10/23 00:30:37;;;;;;;0.10;0.10;;;;;;;7.88;100.00;101112.34;5072290;28;20159;-68
2021/10/23 00:33:03;;;;;;;0.10;0.10;;;;;;;7.92;100.00;101113.25;5071378;28;20025;-68
2021/10/23 00:35:30;;;;;;;0.10;0.10;;;;;;;7.85;100.00;101108.44;5067548;28;20036;-68
2021/10/23 00:37:56;;;;;;;1.00;1.00;;;;;;;7.91;100.00;101109.03;5053304;28;20036;-68
2021/10/23 00:40:21;;;;;;;0.63;0.63;;;;;;;7.90;100.00;101108.22;5060088;28;20406;-68
2021/10/23 00:42:47;;;;;;;0.10;0.10;;;;;;;7.91;100.00;101115.19;5055269;28;20645;-68
2021/10/23 00:45:13;;;;;;;0.10;0.10;;;;;;;7.87;100.00;101124.97;5069858;28;20584;-68
2021/10/23 00:47:38;;;;;;;0.10;0.10;;;;;;;7.87;100.00;101130.34;5072916;28;20115;-68
2021/10/23 00:50:04;;;;;;;0.10;0.10;;;;;;;7.83;100.00;101128.63;5072929;28;20119;-68
2021/10/23 00:52:30;;;;;;;0.10;0.10;;;;;;;7.78;100.00;101134.19;5050884;28;20020;-68
2021/10/23 00:54:56;;;;;;;0.10;0.10;;;;;;;7.82;100.00;101133.19;5071336;28;20024;-69
2021/10/23 00:57:22;;;;;;;0.10;0.10;;;;;;;7.82;100.00;101133.19;5081860;28;20037;-69
2021/10/23 00:59:47;;;;;;;0.10;0.10;;;;;;;7.89;100.00;101146.09;5078733;28;20115;-69
2021/10/23 01:02:13;;;;;;;0.10;0.10;;;;;;;7.93;100.00;101163.91;5076148;28;20036;-69
2021/10/23 01:04:40;;;;;;;0.10;0.10;;;;;;;7.88;100.00;101161.38;5079085;28;20414;-68
2021/10/23 01:07:06;;;;;;;0.10;0.10;;;;;;;7.94;100.00;101162.00;5061219;28;20238;-68
2021/10/23 01:09:37;;;;;;;0.10;0.10;;;;;;;7.95;100.00;101171.63;5079514;28;20044;-68
2021/10/23 01:12:07;;;;;;;;;;;;;;;7.87;100.00;101173.25;5060514;28;20029;-68
2021/10/23 01:14:32;;;;;;;0.10;0.10;;;;;;;7.87;100.00;101167.09;5067880;28;19912;-69
2021/10/23 01:16:58;;;;;;;0.10;0.10;;;;;;;7.95;100.00;101160.88;5076283;28;20040;-69
2021/10/23 01:19:23;;;;;;;0.10;0.10;;;;;;;7.94;100.00;101164.66;5058347;28;21237;-68
2021/10/23 01:21:50;;;;;;;0.10;0.10;;;;;;;7.90;100.00;101169.91;5076981;28;20481;-68
2021/10/23 01:24:16;;;;;;;0.10;0.10;;;;;;;7.93;100.00;101173.84;5065754;28;20175;-69
2021/10/23 01:26:43;;;;;;;0.10;0.10;;;;;;;7.89;100.00;101184.44;5051503;28;20028;-68
2021/10/23 01:29:10;;;;;;;0.10;0.10;;;;;;;7.93;100.00;101176.53;5048209;28;20098;-69
2021/10/23 01:31:36;;;;;;;0.00;0.00;;;;;;;7.84;100.00;101173.09;5074579;28;20037;-68
2021/10/23 01:34:12;;;;;;;0.10;0.10;;;;;;;7.82;100.00;101178.00;5050534;28;20036;-69
2021/10/23 01:36:46;;;;;;;0.10;0.10;;;;;;;7.87;100.00;101186.66;5076436;28;20090;-69
2021/10/23 01:39:12;;;;;;;0.10;0.10;;;;;;;7.89;100.00;101197.03;5056128;28;20029;-70
2021/10/23 01:41:39;;;;;;;0.10;0.10;;;;;;;7.91;100.00;101189.47;5058872;28;20040;-69
2021/10/23 01:44:07;;;;;;;0.10;0.10;;;;;;;7.92;100.00;101205.22;5058113;28;20036;-69
2021/10/23 01:46:32;;;;;;;0.10;0.10;;;;;;;7.90;100.00;101206.63;5061556;28;20056;-69
2021/10/23 01:48:58;;;;;;;0.10;0.10;;;;;;;7.87;100.00;101223.38;5080813;28;20028;-68
2021/10/23 01:51:23;;;;;;;0.30;0.30;;;;;;;7.91;100.00;101213.59;5079738;28;20036;-69
2021/10/23 01:53:49;;;;;;;0.10;0.10;;;;;;;7.97;100.00;101215.78;5074117;28;20056;-69
2021/10/23 01:56:14;;;;;;;0.10;0.10;;;;;;;7.94;100.00;101227.13;5060072;28;20413;-69
2021/10/23 01:58:40;;;;;;;0.10;0.10;;;;;;;7.92;100.00;101217.84;5074749;28;20648;-69
2021/10/23 02:01:05;;;;;;;0.10;0.10;;;;;;;7.90;100.00;101220.84;5062482;28;20434;-69
2021/10/23 02:03:30;;;;;;;0.10;0.10;;;;;;;7.89;100.00;101218.50;5065624;28;20036;-68
2021/10/23 02:05:56;;;;;;;0.10;0.10;;;;;;;7.92;100.00;101228.56;5061045;28;20113;-69
2021/10/23 02:08:21;;;;;;;0.10;0.10;;;;;;;7.98;100.00;101235.31;5078368;28;20089;-68
2021/10/23 02:10:47;;;;;;;0.10;0.10;;;;;;;8.00;100.00;101233.91;5071700;28;20036;-68
2021/10/23 02:13:12;;;;;;;0.10;0.10;;;;;;;8.04;100.00;101242.06;5061560;28;20025;-68
2021/10/23 02:15:38;;;;;;;0.20;0.20;;;;;;;8.09;100.00;101244.59;5067111;28;20033;-68
2021/10/23 02:18:03;;;;;;;0.10;0.10;;;;;;;8.17;100.00;101247.22;5063456;28;20021;-68
2021/10/23 02:20:33;;;;;;;0.10;0.10;;;;;;;8.16;100.00;101244.88;5062223;28;20063;-68
2021/10/23 02:22:59;;;;;;;0.10;0.10;;;;;;;8.23;100.00;101249.72;5068325;28;20086;-68
2021/10/23 02:25:25;;;;;;;0.10;0.10;;;;;;;8.19;100.00;101249.56;5062758;28;20036;-68
2021/10/23 02:27:50;;;;;;;0.20;0.20;;;;;;;8.22;100.00;101251.63;5070024;28;20082;-68
2021/10/23 02:30:16;;;;;;;0.85;0.85;;;;;;;8.25;100.00;101260.94;5054514;28;20048;-68
2021/10/23 02:32:41;;;;;;;0.10;0.10;;;;;;;8.22;100.00;101259.66;5071346;28;20028;-68
2021/10/23 02:35:07;;;;;;;0.10;0.10;;;;;;;8.23;100.00;101264.69;5050570;28;20032;-68
2021/10/23 02:37:34;;;;;;;0.10;0.10;;;;;;;8.18;100.00;101261.41;5069786;28;20465;-68
2021/10/23 02:39:59;;;;;;;0.10;0.10;;;;;;;8.14;100.00;101271.22;5050504;28;20492;-68
2021/10/23 02:42:25;;;;;;;0.10;0.10;;;;;;;8.20;100.00;101265.38;5065962;28;20032;-68
2021/10/23 02:44:50;;;;;;;0.10;0.10;;;;;;;8.20;100.00;101262.69;5071162;28;20587;-68
2021/10/23 02:47:16;;;;;;;0.10;0.10;;;;;;;8.21;100.00;101255.41;5062207;28;20048;-67
2021/10/23 02:49:41;;;;;;;0.10;0.10;;;;;;;8.18;100.00;101250.69;5040430;28;20123;-68
2021/10/23 02:52:06;;;;;;;0.45;0.45;;;;;;;8.22;100.00;101267.72;5055796;28;20116;-67
2021/10/23 02:54:32;;;;;;;0.10;0.10;;;;;;;8.15;100.00;101262.84;5069436;28;20051;-68
2021/10/23 02:56:58;;;;;;;0.10;0.10;;;;;;;8.13;100.00;101261.59;5066240;28;20035;-68
2021/10/23 02:59:23;;;;;;;0.10;0.10;;;;;;;8.15;100.00;101259.38;5068964;28;20047;-67
2021/10/23 03:01:48;;;;;;;0.10;0.10;;;;;;;8.20;100.00;101269.94;5061969;28;20048;-68
2021/10/23 03:04:14;;;;;;;0.22;0.22;;;;;;;8.24;100.00;101270.88;5068760;28;20027;-68
2021/10/23 03:06:44;;;;;;;0.10;0.10;;;;;;;8.29;100.00;101273.38;5070934;28;20511;-67
2021/10/23 03:09:10;;;;;;;0.10;0.10;;;;;;;8.28;100.00;101279.88;5064147;28;20032;-68
2021/10/23 03:11:36;;;;;;;0.10;0.10;;;;;;;8.18;100.00;101272.94;5062607;28;20041;-68
2021/10/23 03:14:01;;;;;;;0.10;0.10;;;;;;;8.27;100.00;101275.59;5060652;28;20535;-68
2021/10/23 03:16:28;;;;;;;0.28;0.28;;;;;;;8.30;100.00;101269.59;5066190;28;20040;-67
2021/10/23 03:18:54;;;;;;;0.10;0.10;;;;;;;8.29;100.00;101281.44;5050808;28;20144;-68
2021/10/23 03:21:19;;;;;;;0.10;0.10;;;;;;;8.35;100.00;101288.19;5060423;28;20059;-68
2021/10/23 03:23:45;;;;;;;0.13;0.13;;;;;;;8.41;100.00;101294.94;5061563;28;20472;-66
2021/10/23 03:26:10;;;;;;;0.10;0.10;;;;;;;8.39;100.00;101294.47;5061530;28;20032;-67
2021/10/23 03:28:36;;;;;;;0.10;0.10;;;;;;;8.38;100.00;101295.56;5053494;28;20489;-68
2021/10/23 03:31:01;;;;;;;0.10;0.10;;;;;;;8.39;100.00;101283.75;5056632;28;20036;-67
2021/10/23 03:33:27;;;;;;;0.10;0.10;;;;;;;8.36;100.00;101283.63;5067023;28;20028;-68
2021/10/23 03:35:52;;;;;;;0.00;0.00;;;;;;;8.37;100.00;101280.59;5061600;28;20025;-67
2021/10/23 03:38:17;;;;;;;0.10;0.10;;;;;;;8.35;100.00;101285.50;5069118;28;20040;-68
2021/10/23 03:40:43;;;;;;;0.20;0.20;;;;;;;8.31;100.00;101281.09;5060082;28;20037;-67
2021/10/23 03:43:09;;;;;;;0.10;0.10;;;;;;;8.31;100.00;101295.31;5068153;28;20056;-67
2021/10/23 03:45:34;;;;;;;0.10;0.10;;;;;;;8.37;100.00;101293.22;5069741;28;20036;-68
2021/10/23 03:48:00;;;;;;;0.03;0.03;;;;;;;8.27;100.00;101304.31;5049876;28;20024;-67
2021/10/23 03:50:26;;;;;;;0.10;0.10;;;;;;;8.25;100.00;101312.69;5061308;28;20040;-67
2021/10/23 03:52:54;;;;;;;0.10;0.10;;;;;;;8.17;100.00;101313.47;5068238;28;20025;-67
2021/10/23 03:55:20;;;;;;;0.20;0.20;;;;;;;8.17;100.00;101294.72;5072059;28;20056;-67
2021/10/23 03:57:45;;;;;;;0.10;0.10;;;;;;;8.12;100.00;101302.94;5063389;28;20097;-67
2021/10/23 04:00:11;;;;;;;0.10;0.10;;;;;;;8.14;100.00;101303.41;5063582;28;20090;-67
2021/10/23 04:02:40;;;;;;;0.10;0.10;;;;;;;8.09;100.00;101306.28;5065126;28;20033;-67
2021/10/23 04:05:07;;;;;;;0.10;0.10;;;;;;;8.07;100.00;101314.63;5070707;28;20039;-67
2021/10/23 04:07:32;;;;;;;0.10;0.10;;;;;;;8.07;100.00;101319.22;5053846;28;20086;-67
2021/10/23 04:09:58;;;;;;;0.10;0.10;;;;;;;8.11;100.00;101325.50;5044175;28;20045;-67
2021/10/23 04:12:25;;;;;;;0.10;0.10;;;;;;;8.06;100.00;101314.94;5060525;28;20397;-67
2021/10/23 04:14:50;;;;;;;0.95;0.95;;;;;;;7.97;100.00;101325.72;5067310;28;20040;-67
2021/10/23 04:17:17;;;;;;;0.20;0.20;;;;;;;8.01;100.00;101329.31;5061572;28;20078;-67
2021/10/23 04:19:42;;;;;;;0.10;0.10;;;;;;;8.02;100.00;101335.47;5067234;28;20397;-67
2021/10/23 04:22:09;;;;;;;0.10;0.10;;;;;;;8.00;100.00;101346.53;5049881;28;20035;-67
2021/10/23 04:24:35;;;;;;;0.10;0.10;;;;;;;8.05;100.00;101346.34;5052182;28;20053;-67
2021/10/23 04:27:01;;;;;;;0.08;0.08;;;;;;;8.04;100.00;101346.66;5063779;28;20504;-67
2021/10/23 04:29:26;;;;;;;0.65;0.25;;;;;;;7.97;100.00;101344.50;5049695;28;20117;-67
2021/10/23 04:31:52;;;;;;;0.10;0.10;;;;;;;8.00;100.00;101348.41;5064018;28;20036;-67
2021/10/23 04:34:17;;;;;;;0.10;0.10;;;;;;;7.94;100.00;101352.38;5056564;28;20032;-67
2021/10/23 04:36:43;;;;;;;0.20;0.20;;;;;;;7.94;100.00;101357.72;5063334;28;20101;-67
2021/10/23 04:39:09;;;;;;;0.10;0.10;;;;;;;7.98;100.00;101372.06;5067224;28;20044;-67
2021/10/23 04:41:35;;;;;;;0.10;0.10;;;;;;;7.92;100.00;101355.38;5061892;28;20029;-67
2021/10/23 04:44:01;;;;;;;0.10;0.10;;;;;;;7.95;100.00;101353.97;5053736;28;20032;-67
2021/10/23 04:46:26;;;;;;;0.43;0.43;;;;;;;8.01;100.00;101347.31;5073495;28;20082;-67
2021/10/23 04:48:52;;;;;;;0.10;0.10;;;;;;;8.03;100.00;101353.16;5068569;28;20029;-67
2021/10/23 04:51:17;;;;;;;0.57;0.57;;;;;;;8.01;100.00;101352.69;5053616;28;20029;-67
2021/10/23 04:53:43;;;;;;;0.10;0.10;;;;;;;8.02;100.00;101354.25;5061731;28;20028;-67
2021/10/23 04:56:08;;;;;;;0.10;0.10;;;;;;;8.05;100.00;101359.00;5073264;28;20032;-67
2021/10/23 04:58:37;;;;;;;0.10;0.10;;;;;;;7.99;100.00;101365.63;5073692;28;20036;-67
2021/10/23 05:01:03;;;;;;;0.10;0.10;;;;;;;7.94;100.00;101363.09;5058815;28;20428;-67
2021/10/23 05:03:29;;;;;;;0.10;0.10;;;;;;;7.94;100.00;101355.06;5059252;28;20087;-67
2021/10/23 05:05:55;;;;;;;0.10;0.10;;;;;;;7.97;100.00;101362.47;5069284;28;20068;-67
2021/10/23 05:08:21;;;;;;;0.10;0.10;;;;;;;7.96;100.00;101363.56;5087767;22;20044;-66
2021/10/23 05:10:47;;;;;;;0.10;0.10;;;;;;;7.98;100.00;101369.41;5086307;28;20031;-65
2021/10/23 05:13:13;;;;;;;0.22;0.22;;;;;;;7.92;100.00;101371.47;5064401;28;20499;-65
2021/10/23 05:15:39;;;;;;;0.10;0.10;;;;;;;7.89;100.00;101382.84;5080394;28;20063;-67
2021/10/23 05:18:04;;;;;;;0.10;0.10;;;;;;;7.86;100.00;101399.53;5076801;28;20484;-68
2021/10/23 05:20:30;;;;;;;0.10;0.10;;;;;;;7.93;100.00;101396.41;5068471;28;20064;-66
2021/10/23 05:22:55;;;;;;;0.10;0.10;;;;;;;7.86;100.00;101398.75;5074261;28;20528;-65
2021/10/23 05:25:41;;;;;;;0.10;0.10;;;;;;;7.93;100.00;101404.44;5064771;28;20025;-65
2021/10/23 05:28:07;;;;;;;0.10;0.10;;;;;;;7.89;100.00;101404.28;5025948;28;20128;-65
2021/10/23 05:30:32;;;;;;;0.00;0.00;;;;;;;7.95;100.00;101399.53;5024000;28;20077;-66
2021/10/23 05:32:57;;;;;;;0.10;0.10;;;;;;;7.97;100.00;101410.75;5005937;28;20046;-67
2021/10/23 05:35:23;;;;;;;0.10;0.10;;;;;;;7.97;100.00;101416.09;5029404;28;20452;-66
2021/10/23 05:37:49;;;;;;;0.10;0.10;;;;;;;7.89;100.00;101419.59;5032626;28;20051;-68
2021/10/23 05:40:15;;;;;;;0.10;0.10;;;;;;;7.91;100.00;101422.75;5024919;28;20144;-65
2021/10/23 05:42:41;;;;;;;0.10;0.10;;;;;;;7.97;100.00;101422.25;5027575;28;20448;-66
2021/10/23 05:45:07;;;;;;;0.10;0.10;;;;;;;7.98;100.00;101425.72;5016067;28;20108;-67
2021/10/23 05:47:33;;;;;;;0.10;0.10;;;;;;;7.91;100.00;101420.06;5030738;28;20045;-69
2021/10/23 05:49:59;;;;;;;1.20;1.20;;;;;;;7.86;100.00;101433.59;5029931;28;20037;-67
2021/10/23 05:52:24;;;;;;;0.10;0.10;;;;;;;7.88;100.00;101434.06;5015270;28;20865;-65
2021/10/23 05:54:50;;;;;;;0.10;0.10;;;;;;;7.87;100.00;101435.19;5013642;28;20736;-67
2021/10/23 05:57:15;;;;;;;0.10;0.10;;;;;;;7.81;100.00;101439.16;5020143;28;20041;-65
2021/10/23 05:59:46;;;;;;;0.10;0.10;;;;;;;7.84;100.00;101449.25;4993729;28;20540;-65
2021/10/23 06:02:24;;;;;;;0.10;0.10;;;;;;;7.78;100.00;101451.28;5017480;28;20113;-66
2021/10/23 06:04:52;;;;;;;0.00;0.00;;;;;;;7.84;100.00;101449.25;5023202;28;20079;-67
2021/10/23 06:07:19;;;;;;;0.10;0.10;;;;;;;7.87;100.00;101437.88;5036533;28;20036;-65
2021/10/23 06:09:48;;;;;;;0.10;0.10;;;;;;;7.88;100.00;101442.91;5053279;28;20382;-66
2021/10/23 06:12:14;;;;;;;0.10;0.10;;;;;;;7.76;100.00;101447.34;5072458;28;20028;-65
2021/10/23 06:14:40;;;;;;;0.30;0.30;;;;;;;7.85;100.00;101456.19;5067762;28;20040;-68
2021/10/23 06:17:05;;;;;;;0.00;0.00;;;;;;;7.82;100.00;101472.91;5038202;28;20085;-68
2021/10/23 06:19:32;;;;;;;0.10;0.10;;;;;;;7.79;100.00;101478.88;5054725;28;20028;-68
2021/10/23 06:21:58;;;;;;;0.10;0.10;;;;;;;7.82;100.00;101472.91;5062509;28;20067;-69
2021/10/23 06:24:24;;;;;;;0.80;0.75;;;;;;;7.87;100.00;101480.78;5053441;28;20546;-67
2021/10/23 06:26:49;;;;;;;0.10;0.10;;;;;;;7.82;100.00;101479.03;5031496;28;20538;-67
2021/10/23 06:29:15;;;;;;;0.10;0.10;;;;;;;7.88;100.00;101490.38;5048529;28;20029;-67
2021/10/23 06:31:40;;;;;;;0.10;0.10;;;;;;;7.83;100.00;101496.72;5052431;28;20064;-67
2021/10/23 06:34:05;;;;;;;0.00;0.00;;;;;;;7.82;100.00;101508.53;5070656;28;20590;-67
2021/10/23 06:36:31;;;;;;;0.10;0.10;;;;;;;7.85;100.00;101505.22;5059430;28;20039;-67
2021/10/23 06:38:56;;;;;;;0.10;0.10;;;;;;;7.84;100.00;101509.00;5070166;28;20969;-67
2021/10/23 06:41:22;;;;;;;0.10;0.10;;;;;;;7.88;100.00;101514.53;5068575;28;20040;-67
2021/10/23 06:43:47;;;;;;;0.00;0.00;;;;;;;7.86;100.00;101516.72;5057237;28;20378;-67
2021/10/23 06:46:13;;;;;;;0.10;0.10;;;;;;;7.89;100.00;101524.16;5067301;28;20039;-67
2021/10/23 06:48:38;;;;;;;0.10;0.10;;;;;;;7.92;100.00;101518.94;5070298;28;20090;-67
2021/10/23 06:51:04;;;;;;;0.10;0.10;;;;;;;7.92;100.00;101529.69;5059345;28;20047;-67
2021/10/23 06:53:30;;;;;;;0.10;0.10;;;;;;;7.99;100.00;101538.03;5048478;28;20025;-67
2021/10/23 06:55:55;;;;;;;0.10;0.10;;;;;;;8.00;100.00;101539.63;5067194;28;20035;-67
2021/10/23 06:58:21;;;;;;;0.10;0.10;;;;;;;7.98;100.00;101541.03;5068481;28;20020;-67
2021/10/23 07:00:46;;;;;;;0.10;0.10;;;;;;;8.05;100.00;101550.19;5070052;28;20036;-67
2021/10/23 07:03:11;;;;;;;0.50;0.50;;;;;;;8.08;100.00;101551.44;5071395;28;20047;-68
2021/10/23 07:05:37;;;;;;;0.10;0.10;;;;;;;8.14;100.00;101567.09;5062443;28;20388;-67
2021/10/23 07:08:03;;;;;;;0.10;0.10;;;;;;;8.15;100.00;101576.69;5056788;28;20103;-67
2021/10/23 07:10:28;;;;;;;0.10;0.10;;;;;;;8.30;100.00;101588.09;5063868;28;20488;-67
2021/10/23 07:12:54;;;;;;;1.30;0.75;;;;;;;8.41;100.00;101602.78;5056974;28;20070;-67
2021/10/23 07:15:20;;;;;;;0.10;0.10;;;;;;;8.46;100.00;101594.56;5040374;28;20039;-67
2021/10/23 07:17:45;;;;;;;0.85;0.70;;;;;;;8.49;100.00;101596.63;5077163;28;20729;-66
2021/10/23 07:20:11;;;;;;;0.10;0.10;;;;;;;8.48;100.00;101587.75;5064188;28;20726;-66
2021/10/23 07:22:37;;;;;;;0.10;0.10;;;;;;;8.58;100.00;101586.66;5049569;28;20036;-67
2021/10/23 07:25:04;;;;;;;0.13;0.13;;;;;;;8.64;100.00;101583.50;5054084;28;20037;-67
2021/10/23 07:27:30;;;;;;;0.17;0.17;;;;;;;8.63;100.00;101600.69;5070206;28;20032;-66
2021/10/23 07:29:56;;;;;;;0.10;0.10;;;;;;;8.64;100.00;101613.03;5056503;28;20105;-65
2021/10/23 07:32:22;;;;;;;0.10;0.10;;;;;;;8.59;100.00;101615.88;5065523;28;20039;-65
2021/10/23 07:34:47;;;;;;;1.17;0.85;;;;;;;8.64;100.00;101618.41;5057103;28;20024;-66
2021/10/23 07:37:13;;;;;;;0.10;0.10;;;;;;;8.59;100.00;101621.25;5061025;28;20029;-66
2021/10/23 07:39:39;;;;;;;0.10;0.10;;;;;;;8.74;100.00;101630.69;5047948;28;20098;-65
2021/10/23 07:42:05;;;;;;;1.67;1.55;;;;;;;8.82;100.00;101636.06;5066372;28;20052;-66
2021/10/23 07:44:31;;;;;;;0.28;0.28;;;;;;;8.83;100.00;101631.47;5059030;28;20032;-65
2021/10/23 07:46:57;;;;;;;0.10;0.10;;;;;;;8.83;100.00;101644.91;5056338;28;20082;-65
2021/10/23 07:49:22;;;;;;;0.10;0.10;;;;;;;8.75;100.00;101649.19;5056495;28;20048;-65
2021/10/23 07:51:48;;;;;;;0.10;0.10;;;;;;;8.73;100.00;101656.00;5062976;28;20439;-66
2021/10/23 07:54:13;;;;;;;0.10;0.10;;;;;;;8.80;100.00;101653.59;5067871;28;20099;-66
2021/10/23 07:56:43;;;;;;;0.10;0.10;;;;;;;8.92;100.00;101657.22;5070336;28;20054;-65
2021/10/23 07:59:10;;;;;;;0.25;0.25;;;;;;;9.02;100.00;101654.19;5066321;28;20036;-66
2021/10/23 08:01:36;;;;;;;0.10;0.10;;;;;;;9.20;100.00;101659.53;5063612;28;20128;-66
2021/10/23 08:04:02;;;;;;;0.10;0.10;;;;;;;9.27;100.00;101663.28;5065076;28;20108;-66
2021/10/23 08:06:28;;;;;;;0.08;0.08;;;;;;;9.23;100.00;101675.03;5056495;28;20037;-65
2021/10/23 08:08:54;;;;;;;0.10;0.10;;;;;;;9.28;100.00;101685.59;5052769;28;20393;-66
2021/10/23 08:11:19;;;;;;;0.10;0.10;;;;;;;9.21;100.00;101685.31;5058023;28;20036;-65
2021/10/23 08:13:45;;;;;;;0.10;0.10;;;;;;;9.20;100.00;101684.50;5059970;28;20032;-65
2021/10/23 08:16:12;;;;;;;0.10;0.10;;;;;;;9.33;100.00;101688.91;5057616;28;20036;-65
2021/10/23 08:18:38;;;;;;;1.40;1.20;;;;;;;9.41;100.00;101700.72;5060662;28;20085;-65
2021/10/23 08:21:03;;;;;;;0.10;0.10;;;;;;;9.47;100.00;101700.25;5058222;28;20695;-66
2021/10/23 08:23:28;;;;;;;0.10;0.10;;;;;;;9.50;100.00;101705.00;5059990;28;20131;-65
2021/10/23 08:25:55;;;;;;;0.10;0.10;;;;;;;9.60;100.00;101714.63;5046641;28;20043;-66
2021/10/23 08:28:24;;;;;;;0.10;0.10;;;;;;;9.72;100.00;101714.72;5061341;28;20032;-65
2021/10/23 08:30:50;;;;;;;0.10;0.10;;;;;;;9.80;100.00;101714.69;5069298;28;20113;-65
2021/10/23 08:33:16;;;;;;;0.10;0.10;;;;;;;9.90;100.00;101719.72;5071879;28;20036;-65
2021/10/23 08:35:42;;;;;;;0.10;0.10;;;;;;;9.95;100.00;101716.81;5066186;28;20035;-65
2021/10/23 08:38:08;;;;;;;0.20;0.20;;;;;;;9.96;100.00;101725.69;5064440;28;20547;-65
2021/10/23 08:40:33;;;;;;;0.00;0.00;;;;;;;9.90;100.00;101729.69;5060315;28;20581;-65
2021/10/23 08:43:00;;;;;;;0.10;0.10;;;;;;;9.91;100.00;101736.66;5060782;28;20110;-65
2021/10/23 08:45:26;;;;;;;0.43;0.43;;;;;;;9.91;100.00;101739.34;5049384;28;20036;-66
2021/10/23 08:47:54;;;;;;;0.65;0.55;;;;;;;9.96;100.00;101741.84;5059018;28;20036;-66
2021/10/23 08:50:22;;;;;;;0.15;0.15;;;;;;;9.95;100.00;101741.03;5061620;28;20387;-66
2021/10/23 08:52:51;;;;;;;0.10;0.10;;;;;;;10.08;100.00;101744.63;5062612;28;20024;-65
2021/10/23 08:55:17;;;;;;;0.10;0.10;;;;;;;10.32;100.00;101750.22;5067267;28;20400;-65
2021/10/23 08:57:45;;;;;;;0.10;0.10;;;;;;;10.37;100.00;101746.56;5046898;28;20660;-65
2021/10/23 09:00:12;;;;;;;0.00;0.00;;;;;;;10.43;100.00;101753.34;5071281;28;20476;-65
2021/10/23 09:02:38;;;;;;;0.00;0.00;;;;;;;10.47;100.00;101760.44;5066426;28;20042;-66
2021/10/23 09:05:04;;;;;;;0.10;0.10;;;;;;;10.45;100.00;101768.03;5043194;28;20036;-66
2021/10/23 09:07:31;;;;;;;0.15;0.15;;;;;;;10.50;100.00;101767.06;5072902;28;20507;-66
2021/10/23 09:10:04;;;;;;;0.10;0.10;;;;;;;10.54;100.00;101782.25;5047227;28;20043;-66
2021/10/23 09:12:32;;;;;;;0.98;0.63;;;;;;;10.51;100.00;101771.38;5067937;28;20079;-68
2021/10/23 09:15:22;;;;;;;0.10;0.10;;;;;;;10.48;100.00;101777.38;5054846;28;20036;-66
2021/10/23 09:17:49;;;;;;;0.00;0.00;;;;;;;10.54;100.00;101779.56;5054931;28;20044;-66
2021/10/23 09:20:16;;;;;;;0.00;0.00;;;;;;;10.58;100.00;101780.50;5044805;28;20035;-66
2021/10/23 09:22:43;;;;;;;0.00;0.00;;;;;;;10.57;100.00;101770.81;5063648;28;20047;-67
2021/10/23 09:25:33;;;;;;;0.00;0.00;;;;;;;10.65;100.00;101772.69;5067532;28;20127;-67
2021/10/23 09:28:26;;;;;;;0.00;0.00;;;;;;;10.67;100.00;101785.81;5067873;28;20405;-68
2021/10/23 09:30:51;;;;;;;0.00;0.00;;;;;;;10.75;100.00;101788.47;5069330;28;20028;-66
2021/10/23 09:33:19;;;;;;;0.05;0.05;;;;;;;10.88;100.00;101783.91;5043766;28;20031;-66
2021/10/23 09:35:47;;;;;;;0.10;0.10;;;;;;;10.97;100.00;101784.66;5052183;28;20413;-67
2021/10/23 09:38:15;;;;;;;0.10;0.10;;;;;;;11.02;100.00;101797.13;5062469;28;20058;-71
2021/10/23 09:40:42;;;;;;;0.10;0.10;;;;;;;11.18;100.00;101798.91;5069783;28;20052;-67
2021/10/23 09:43:11;;;;;;;0.10;0.10;;;;;;;11.22;100.00;101789.06;5035106;28;20396;-67
2021/10/23 09:45:55;;;;;;;0.20;0.20;;;;;;;11.35;100.00;101797.97;5055244;28;20049;-66
2021/10/23 09:48:42;;;;;;;0.10;0.10;;;;;;;11.41;100.00;101800.13;5062062;28;20025;-66
2021/10/23 09:51:31;;;;;;;0.00;0.00;;;;;;;11.51;100.00;101798.94;5046652;28;20032;-66
2021/10/23 09:54:00;;;;;;;0.03;0.03;;;;;;;11.52;99.25;101809.38;5062531;28;20056;-68
2021/10/23 09:56:31;;;;;;;0.10;0.10;;;;;;;11.67;98.72;101808.78;5068251;28;20036;-66
2021/10/23 09:58:59;;;;;;;0.05;0.05;;;;;;;11.66;98.12;101806.44;5070365;28;20733;-65
2021/10/23 10:01:26;;;;;;;1.27;1.17;;;;;;;11.73;97.73;101804.75;5070164;28;20047;-66
2021/10/23 10:03:54;;;;;;;0.10;0.10;;;;;;;11.83;98.10;101811.63;5070628;28;20073;-66
2021/10/23 10:06:20;;;;;;;0.10;0.10;;;;;;;11.93;97.95;101816.63;5066409;28;20054;-66
2021/10/23 10:08:48;;;;;;;0.20;0.20;;;;;;;12.01;97.30;101812.22;5069187;28;20505;-66
2021/10/23 10:11:13;;;;;;;0.32;0.32;;;;;;;12.09;97.15;101808.66;5054527;28;20040;-66
2021/10/23 10:13:41;;;;;;;0.00;0.00;;;;;;;12.20;96.96;101801.66;5067237;28;20493;-66
2021/10/23 10:16:11;;;;;;;0.10;0.10;;;;;;;12.31;96.41;101800.13;5055622;28;20032;-65
2021/10/23 10:18:39;;;;;;;0.00;0.00;;;;;;;12.37;96.10;101806.84;5070591;28;20035;-66
2021/10/23 10:21:07;;;;;;;0.00;0.00;;;;;;;12.40;95.97;101806.97;5064627;28;20020;-66
2021/10/23 10:23:37;;;;;;;0.65;0.57;;;;;;;12.45;95.15;101811.34;5049458;28;20481;-65
2021/10/23 10:26:14;;;;;;;0.00;0.00;;;;;;;12.41;94.78;101816.66;5065439;28;20554;-66
2021/10/23 10:29:14;;;;;;;0.35;0.35;;;;;;;12.46;94.81;101824.56;5065956;28;20028;-66
2021/10/23 10:34:42;;;;;;;0.00;0.00;;;;;;;12.63;94.64;101829.72;5069926;28;20036;-66
2021/10/23 10:42:58;;;;;;;0.00;0.00;;;;;;;12.87;92.85;101834.31;5067007;28;20039;-67
2021/10/23 10:45:42;;;;;;;0.00;0.00;;;;;;;12.95;91.76;101829.91;5062033;28;20123;-66
2021/10/23 10:48:16;;;;;;;0.00;0.00;;;;;;;13.02;91.15;101835.50;5052942;28;20059;-66
2021/10/23 10:50:44;;;;;;;0.85;0.85;;;;;;;13.09;90.71;101841.94;5069054;28;20063;-67
2021/10/23 10:53:19;;;;;;;0.10;0.10;;;;;;;13.18;89.85;101845.28;5066309;28;20036;-66
2021/10/23 10:55:48;;;;;;;0.10;0.10;;;;;;;13.19;88.20;101843.38;5065218;28;20025;-67
2021/10/23 10:58:15;;;;;;;0.00;0.00;;;;;;;13.12;88.26;101843.19;5055489;28;20032;-67
2021/10/23 11:00:48;;;;;;;0.00;0.00;;;;;;;13.05;88.20;101851.06;5063670;28;20206;-67
2021/10/23 11:03:37;;;;;;;0.00;0.00;;;;;;;12.98;88.66;101857.03;5068579;28;20051;-66
2021/10/23 11:06:27;;;;;;;0.20;0.20;;;;;;;13.07;88.76;101855.00;5045240;28;20032;-67
2021/10/23 11:09:11;;;;;;;0.05;0.05;;;;;;;13.17;89.42;101865.38;5077020;22;20496;-68
2021/10/23 11:11:46;;;;;;;0.60;0.45;;;;;;;13.19;88.87;101855.00;5066609;28;20040;-68
2021/10/23 11:14:24;;;;;;;0.00;0.00;;;;;;;13.28;88.61;101860.25;5067904;28;20056;-69
2021/10/23 11:16:55;;;;;;;0.00;0.00;;;;;;;13.24;88.99;101862.84;5038762;28;20032;-68
2021/10/23 11:19:24;;;;;;;0.00;0.00;;;;;;;13.23;88.80;101863.19;5049777;28;20024;-71
2021/10/23 11:21:51;;;;;;;0.00;0.00;;;;;;;13.26;88.59;101863.31;5051309;28;20021;-69
2021/10/23 11:24:16;;;;;;;0.10;0.10;;;;;;;13.23;88.58;101880.22;5053352;28;20097;-69
2021/10/23 11:26:53;;;;;;;0.00;0.00;;;;;;;13.23;87.72;101877.53;5054491;28;20045;-68
2021/10/23 11:29:23;;;;;;;0.00;0.00;;;;;;;13.10;87.87;101865.16;5024701;28;20042;-69
2021/10/23 11:31:50;;;;;;;0.00;0.00;;;;;;;13.01;88.58;101869.88;5060933;28;20508;-68
2021/10/23 11:34:41;;;;;;;0.80;0.80;;;;;;;12.92;88.41;101879.22;5053353;28;20060;-67